createdAt,value
2018-04-07T00:00:27.617Z,10.53
2018-04-07T00:01:27.619Z,10.52
2018-04-07T00:02:27.663Z,10.5
2018-04-07T00:03:27.587Z,10.48
2018-04-07T00:04:27.664Z,10.46
2018-04-07T00:05:27.628Z,10.43
2018-04-07T00:06:27.645Z,10.4
2018-04-07T00:07:27.614Z,10.36
2018-04-07T00:08:27.603Z,10.37
2018-04-07T00:09:27.666Z,10.41
2018-04-07T00:10:27.616Z,10.4
2018-04-07T00:11:27.599Z,10.37
2018-04-07T00:12:27.894Z,10.31
2018-04-07T00:13:27.598Z,10.31
2018-04-07T00:14:27.663Z,10.33
2018-04-07T00:15:27.691Z,10.28
2018-04-07T00:16:27.613Z,10.28
2018-04-07T00:17:27.639Z,10.28
2018-04-07T00:18:27.614Z,10.27
2018-04-07T00:19:27.659Z,10.29
2018-04-07T00:20:27.632Z,10.28
2018-04-07T00:21:27.619Z,10.26
2018-04-07T00:22:27.917Z,10.28
2018-04-07T00:23:27.640Z,10.28
2018-04-07T00:24:27.629Z,10.3
2018-04-07T00:25:27.621Z,10.28
2018-04-07T00:26:27.655Z,10.22
2018-04-07T00:27:27.650Z,10.24
2018-04-07T00:28:27.621Z,10.23
2018-04-07T00:29:27.664Z,10.23
2018-04-07T00:30:27.626Z,10.23
2018-04-07T00:31:27.622Z,10.2
2018-04-07T00:32:27.662Z,10.22
2018-04-07T00:33:27.603Z,10.19
2018-04-07T00:34:27.667Z,10.23
2018-04-07T00:35:27.662Z,10.21
2018-04-07T00:36:27.624Z,10.21
2018-04-07T00:37:27.800Z,10.23
2018-04-07T00:38:27.660Z,10.19
2018-04-07T00:39:27.648Z,10.15
2018-04-07T00:40:27.632Z,10.17
2018-04-07T00:41:27.650Z,10.22
2018-04-07T00:42:27.687Z,10.18
2018-04-07T00:43:27.618Z,10.19
2018-04-07T00:44:27.646Z,10.17
2018-04-07T00:45:27.632Z,10.17
2018-04-07T00:46:27.692Z,10.17
2018-04-07T00:47:27.670Z,10.12
2018-04-07T00:48:27.800Z,10.09
2018-04-07T00:49:27.623Z,10.02
2018-04-07T00:50:27.623Z,10.03
2018-04-07T00:51:27.624Z,10.03
2018-04-07T00:52:27.616Z,10.07
2018-04-07T00:53:27.624Z,10.04
2018-04-07T00:54:27.668Z,10
2018-04-07T00:55:27.643Z,9.99
2018-04-07T00:56:27.634Z,10.01
2018-04-07T00:57:27.630Z,10.02
2018-04-07T00:58:27.639Z,9.98
2018-04-07T00:59:27.641Z,9.98
2018-04-07T01:00:27.663Z,9.97
2018-04-07T01:01:27.696Z,9.97
2018-04-07T01:02:27.678Z,9.99
2018-04-07T01:03:27.662Z,10.02
2018-04-07T01:04:27.766Z,10.01
2018-04-07T01:05:27.659Z,10.03
2018-04-07T01:06:27.703Z,10.01
2018-04-07T01:07:27.667Z,9.98
2018-04-07T01:08:27.652Z,10.01
2018-04-07T01:09:27.658Z,9.98
2018-04-07T01:10:27.680Z,9.99
2018-04-07T01:11:27.700Z,9.99
2018-04-07T01:12:27.653Z,9.99
2018-04-07T01:13:27.641Z,9.98
2018-04-07T01:14:27.648Z,9.99
2018-04-07T01:15:27.704Z,9.99
2018-04-07T01:16:27.699Z,9.97
2018-04-07T01:17:27.707Z,9.97
2018-04-07T01:18:27.673Z,9.97
2018-04-07T01:19:27.692Z,9.98
2018-04-07T01:20:27.671Z,9.99
2018-04-07T01:21:27.730Z,9.98
2018-04-07T01:22:27.685Z,9.95
2018-04-07T01:23:27.680Z,9.93
2018-04-07T01:24:27.771Z,9.92
2018-04-07T01:25:27.698Z,9.94
2018-04-07T01:26:27.698Z,9.93
2018-04-07T01:27:27.656Z,9.94
2018-04-07T01:28:27.718Z,9.96
2018-04-07T01:29:27.683Z,9.94
2018-04-07T01:30:27.665Z,9.93
2018-04-07T01:31:27.648Z,9.95
2018-04-07T01:32:27.651Z,9.91
2018-04-07T01:33:27.682Z,9.89
2018-04-07T01:34:27.684Z,9.9
2018-04-07T01:35:27.657Z,9.9
2018-04-07T01:36:27.666Z,9.87
2018-04-07T01:37:27.695Z,9.85
2018-04-07T01:38:27.651Z,9.85
2018-04-07T01:39:27.745Z,9.79
2018-04-07T01:40:27.662Z,9.76
2018-04-07T01:41:27.690Z,9.81
2018-04-07T01:42:27.646Z,9.76
2018-04-07T01:43:27.660Z,9.74
2018-04-07T01:44:27.659Z,9.74
2018-04-07T01:45:27.668Z,9.75
2018-04-07T01:46:27.664Z,9.75
2018-04-07T01:47:27.674Z,9.74
2018-04-07T01:48:27.698Z,9.73
2018-04-07T01:49:27.685Z,9.69
2018-04-07T01:50:27.708Z,9.71
2018-04-07T01:51:27.697Z,9.69
2018-04-07T01:52:27.663Z,9.68
2018-04-07T01:53:27.667Z,9.67
2018-04-07T01:54:27.695Z,9.66
2018-04-07T01:55:27.699Z,9.64
2018-04-07T01:56:27.691Z,9.65
2018-04-07T01:57:27.687Z,9.62
2018-04-07T01:58:27.675Z,9.61
2018-04-07T01:59:27.682Z,9.6
2018-04-07T02:00:27.813Z,9.59
2018-04-07T02:01:27.718Z,9.58
2018-04-07T02:02:27.667Z,9.58
2018-04-07T02:03:27.686Z,9.55
2018-04-07T02:04:27.688Z,9.59
2018-04-07T02:05:27.684Z,9.53
2018-04-07T02:06:27.665Z,9.52
2018-04-07T02:07:27.656Z,9.51
2018-04-07T02:08:27.708Z,9.48
2018-04-07T02:09:27.643Z,9.49
2018-04-07T02:10:27.655Z,9.48
2018-04-07T02:11:27.673Z,9.53
2018-04-07T02:12:27.651Z,9.51
2018-04-07T02:13:27.692Z,9.55
2018-04-07T02:14:27.727Z,9.56
2018-04-07T02:15:27.681Z,9.53
2018-04-07T02:16:27.664Z,9.52
2018-04-07T02:17:27.654Z,9.49
2018-04-07T02:18:27.665Z,9.49
2018-04-07T02:19:27.723Z,9.52
2018-04-07T02:20:27.688Z,9.5
2018-04-07T02:21:27.674Z,9.48
2018-04-07T02:22:27.674Z,9.42
2018-04-07T02:23:27.686Z,9.4
2018-04-07T02:24:27.681Z,9.38
2018-04-07T02:25:27.670Z,9.36
2018-04-07T02:26:27.691Z,9.35
2018-04-07T02:27:27.678Z,9.35
2018-04-07T02:28:27.691Z,9.34
2018-04-07T02:29:27.674Z,9.32
2018-04-07T02:30:27.711Z,9.34
2018-04-07T02:31:27.687Z,9.32
2018-04-07T02:32:27.711Z,9.32
2018-04-07T02:33:27.698Z,9.27
2018-04-07T02:34:27.785Z,9.27
2018-04-07T02:35:27.678Z,9.27
2018-04-07T02:36:27.722Z,9.23
2018-04-07T02:37:27.695Z,9.23
2018-04-07T02:38:27.765Z,9.24
2018-04-07T02:39:27.740Z,9.26
2018-04-07T02:40:27.684Z,9.22
2018-04-07T02:41:27.680Z,9.22
2018-04-07T02:42:27.731Z,9.22
2018-04-07T02:43:27.714Z,9.19
2018-04-07T02:44:27.706Z,9.18
2018-04-07T02:45:27.741Z,9.18
2018-04-07T02:46:27.694Z,9.19
2018-04-07T02:47:27.678Z,9.2
2018-04-07T02:48:27.706Z,9.16
2018-04-07T02:49:27.782Z,9.17
2018-04-07T02:50:27.812Z,9.17
2018-04-07T02:51:27.761Z,9.16
2018-04-07T02:52:27.698Z,9.14
2018-04-07T02:53:27.705Z,9.14
2018-04-07T02:54:27.776Z,9.14
2018-04-07T02:55:27.876Z,9.15
2018-04-07T02:56:27.710Z,9.17
2018-04-07T02:57:27.680Z,9.16
2018-04-07T02:58:27.675Z,9.15
2018-04-07T02:59:27.703Z,9.15
2018-04-07T03:00:27.718Z,9.15
2018-04-07T03:01:27.688Z,9.17
2018-04-07T03:02:27.720Z,9.17
2018-04-07T03:03:27.700Z,9.21
2018-04-07T03:04:27.710Z,9.2
2018-04-07T03:05:27.733Z,9.19
2018-04-07T03:06:27.718Z,9.17
2018-04-07T03:07:27.699Z,9.18
2018-04-07T03:08:27.704Z,9.2
2018-04-07T03:09:27.713Z,9.17
2018-04-07T03:10:27.678Z,9.2
2018-04-07T03:11:27.684Z,9.19
2018-04-07T03:12:27.677Z,9.21
2018-04-07T03:13:27.665Z,9.18
2018-04-07T03:14:27.665Z,9.19
2018-04-07T03:15:27.855Z,9.18
2018-04-07T03:16:27.686Z,9.17
2018-04-07T03:17:27.684Z,9.17
2018-04-07T03:18:27.669Z,9.14
2018-04-07T03:19:27.686Z,9.15
2018-04-07T03:20:27.705Z,9.11
2018-04-07T03:21:27.727Z,9.1
2018-04-07T03:22:27.680Z,9.08
2018-04-07T03:23:27.676Z,9.05
2018-04-07T03:24:27.702Z,9.05
2018-04-07T03:25:27.700Z,8.99
2018-04-07T03:26:27.680Z,9.02
2018-04-07T03:27:27.717Z,8.98
2018-04-07T03:28:27.684Z,8.97
2018-04-07T03:29:27.716Z,8.97
2018-04-07T03:30:27.743Z,8.93
2018-04-07T03:31:27.713Z,8.95
2018-04-07T03:32:27.674Z,8.97
2018-04-07T03:33:27.693Z,8.96
2018-04-07T03:34:27.723Z,8.94
2018-04-07T03:35:27.706Z,8.97
2018-04-07T03:36:27.700Z,8.97
2018-04-07T03:37:27.691Z,8.94
2018-04-07T03:38:27.688Z,8.96
2018-04-07T03:39:27.685Z,8.93
2018-04-07T03:40:27.711Z,8.96
2018-04-07T03:41:28.065Z,8.96
2018-04-07T03:42:27.683Z,8.95
2018-04-07T03:43:27.682Z,8.95
2018-04-07T03:44:27.690Z,8.92
2018-04-07T03:45:27.775Z,8.91
2018-04-07T03:46:27.733Z,8.9
2018-04-07T03:47:27.681Z,8.91
2018-04-07T03:48:27.709Z,8.92
2018-04-07T03:49:27.696Z,8.95
2018-04-07T03:50:27.984Z,8.95
2018-04-07T03:51:27.727Z,8.93
2018-04-07T03:52:27.738Z,8.93
2018-04-07T03:53:27.720Z,8.91
2018-04-07T03:54:27.724Z,8.9
2018-04-07T03:55:27.705Z,8.92
2018-04-07T03:56:27.752Z,8.93
2018-04-07T03:57:27.736Z,8.94
2018-04-07T03:58:27.711Z,8.93
2018-04-07T03:59:27.709Z,8.96
2018-04-07T04:00:27.732Z,8.96
2018-04-07T04:01:27.749Z,8.95
2018-04-07T04:02:27.718Z,8.95
2018-04-07T04:03:27.760Z,8.97
2018-04-07T04:04:27.703Z,8.98
2018-04-07T04:05:27.752Z,8.99
2018-04-07T04:06:27.758Z,9
2018-04-07T04:07:27.710Z,8.96
2018-04-07T04:08:27.709Z,8.95
2018-04-07T04:09:27.759Z,8.93
2018-04-07T04:10:27.721Z,8.92
2018-04-07T04:11:27.730Z,8.9
2018-04-07T04:12:27.690Z,8.91
2018-04-07T04:13:27.728Z,8.91
2018-04-07T04:14:27.688Z,8.92
2018-04-07T04:15:27.720Z,8.85
2018-04-07T04:16:27.737Z,8.84
2018-04-07T04:17:27.761Z,8.82
2018-04-07T04:18:27.728Z,8.79
2018-04-07T04:19:27.741Z,8.81
2018-04-07T04:20:27.729Z,8.83
2018-04-07T04:21:27.782Z,8.73
2018-04-07T04:22:27.825Z,8.72
2018-04-07T04:23:28.180Z,8.7
2018-04-07T04:24:27.720Z,8.67
2018-04-07T04:25:27.715Z,8.66
2018-04-07T04:26:27.732Z,8.64
2018-04-07T04:27:27.730Z,8.64
2018-04-07T04:28:27.700Z,8.62
2018-04-07T04:29:27.729Z,8.63
2018-04-07T04:30:27.713Z,8.64
2018-04-07T04:31:27.722Z,8.6
2018-04-07T04:32:27.739Z,8.59
2018-04-07T04:33:27.749Z,8.56
2018-04-07T04:34:27.740Z,8.56
2018-04-07T04:35:27.760Z,8.57
2018-04-07T04:36:28.078Z,8.58
2018-04-07T04:37:27.708Z,8.53
2018-04-07T04:38:27.719Z,8.54
2018-04-07T04:39:27.731Z,8.54
2018-04-07T04:40:27.702Z,8.53
2018-04-07T04:41:27.783Z,8.53
2018-04-07T04:42:27.756Z,8.53
2018-04-07T04:43:27.711Z,8.52
2018-04-07T04:44:27.735Z,8.5
2018-04-07T04:45:27.730Z,8.47
2018-04-07T04:46:27.725Z,8.5
2018-04-07T04:47:27.796Z,8.48
2018-04-07T04:48:27.747Z,8.52
2018-04-07T04:49:27.731Z,8.48
2018-04-07T04:50:27.764Z,8.51
2018-04-07T04:51:27.703Z,8.48
2018-04-07T04:52:27.751Z,8.49
2018-04-07T04:53:27.753Z,8.47
2018-04-07T04:54:27.782Z,8.45
2018-04-07T04:55:27.705Z,8.43
2018-04-07T04:56:27.755Z,8.44
2018-04-07T04:57:28.206Z,8.42
2018-04-07T04:58:27.734Z,8.44
2018-04-07T04:59:27.758Z,8.41
2018-04-07T05:00:27.742Z,8.41
2018-04-07T05:01:27.740Z,8.45
2018-04-07T05:02:27.731Z,8.42
2018-04-07T05:03:27.713Z,8.41
2018-04-07T05:04:27.735Z,8.41
2018-04-07T05:05:27.719Z,8.37
2018-04-07T05:06:27.721Z,8.37
2018-04-07T05:07:27.730Z,8.39
2018-04-07T05:08:27.737Z,8.4
2018-04-07T05:09:27.736Z,8.42
2018-04-07T05:10:27.730Z,8.4
2018-04-07T05:11:27.728Z,8.4
2018-04-07T05:12:27.788Z,8.36
2018-04-07T05:13:27.786Z,8.35
2018-04-07T05:14:27.761Z,8.34
2018-04-07T05:15:27.763Z,8.34
2018-04-07T05:16:27.739Z,8.34
2018-04-07T05:17:27.740Z,8.3
2018-04-07T05:18:27.770Z,8.32
2018-04-07T05:19:27.761Z,8.29
2018-04-07T05:20:27.739Z,8.3
2018-04-07T05:21:27.742Z,8.32
2018-04-07T05:22:27.767Z,8.35
2018-04-07T05:23:27.784Z,8.35
2018-04-07T05:24:27.741Z,8.34
2018-04-07T05:25:27.819Z,8.33
2018-04-07T05:26:27.743Z,8.3
2018-04-07T05:27:27.748Z,8.33
2018-04-07T05:28:27.762Z,8.34
2018-04-07T05:29:27.768Z,8.33
2018-04-07T05:30:27.754Z,8.33
2018-04-07T05:31:27.787Z,8.33
2018-04-07T05:32:27.764Z,8.35
2018-04-07T05:33:27.770Z,8.36
2018-04-07T05:34:27.767Z,8.33
2018-04-07T05:35:27.762Z,8.34
2018-04-07T05:36:27.769Z,8.31
2018-04-07T05:37:27.788Z,8.34
2018-04-07T05:38:27.860Z,8.33
2018-04-07T05:39:27.770Z,8.35
2018-04-07T05:40:27.766Z,8.36
2018-04-07T05:41:27.781Z,8.39
2018-04-07T05:42:27.746Z,8.39
2018-04-07T05:43:27.858Z,8.36
2018-04-07T05:44:27.759Z,8.39
2018-04-07T05:45:27.737Z,8.37
2018-04-07T05:46:27.793Z,8.43
2018-04-07T05:47:27.786Z,8.45
2018-04-07T05:48:27.788Z,8.46
2018-04-07T05:49:27.770Z,8.47
2018-04-07T05:50:27.737Z,8.48
2018-04-07T05:51:27.795Z,8.47
2018-04-07T05:52:27.761Z,8.5
2018-04-07T05:53:27.835Z,8.52
2018-04-07T05:54:27.771Z,8.5
2018-04-07T05:55:27.771Z,8.5
2018-04-07T05:56:27.891Z,8.53
2018-04-07T05:57:27.755Z,8.54
2018-04-07T05:58:27.793Z,8.56
2018-04-07T05:59:27.764Z,8.56
2018-04-07T06:00:27.757Z,8.57
2018-04-07T06:01:27.784Z,8.57
2018-04-07T06:02:27.790Z,8.59
2018-04-07T06:03:27.795Z,8.61
2018-04-07T06:04:27.783Z,8.61
2018-04-07T06:05:27.779Z,8.6
2018-04-07T06:06:27.780Z,8.64
2018-04-07T06:07:27.743Z,8.65
2018-04-07T06:08:28.098Z,8.65
2018-04-07T06:09:27.779Z,8.67
2018-04-07T06:10:27.792Z,8.69
2018-04-07T06:11:27.769Z,8.71
2018-04-07T06:12:27.769Z,8.72
2018-04-07T06:13:27.803Z,8.72
2018-04-07T06:14:27.790Z,8.76
2018-04-07T06:15:27.756Z,8.77
2018-04-07T06:16:27.773Z,8.79
2018-04-07T06:17:27.786Z,8.78
2018-04-07T06:18:27.776Z,8.81
2018-04-07T06:19:27.840Z,8.84
2018-04-07T06:20:27.770Z,8.85
2018-04-07T06:21:27.807Z,8.87
2018-04-07T06:22:27.770Z,8.88
2018-04-07T06:23:27.779Z,8.9
2018-04-07T06:24:27.799Z,8.9
2018-04-07T06:25:27.771Z,8.94
2018-04-07T06:26:27.801Z,9
2018-04-07T06:27:27.872Z,9.01
2018-04-07T06:28:27.804Z,9.02
2018-04-07T06:29:27.774Z,9.04
2018-04-07T06:30:27.762Z,9.04
2018-04-07T06:31:27.801Z,9.08
2018-04-07T06:32:27.765Z,9.09
2018-04-07T06:33:27.815Z,9.11
2018-04-07T06:34:27.800Z,9.11
2018-04-07T06:35:27.739Z,9.15
2018-04-07T06:36:27.774Z,9.15
2018-04-07T06:37:27.768Z,9.18
2018-04-07T06:38:27.772Z,9.18
2018-04-07T06:39:27.818Z,9.23
2018-04-07T06:40:27.750Z,9.27
2018-04-07T06:41:27.791Z,9.24
2018-04-07T06:42:27.766Z,9.28
2018-04-07T06:43:27.762Z,9.31
2018-04-07T06:44:27.760Z,9.31
2018-04-07T06:45:27.781Z,9.34
2018-04-07T06:46:27.834Z,9.35
2018-04-07T06:47:27.751Z,9.38
2018-04-07T06:48:27.960Z,9.41
2018-04-07T06:49:27.798Z,9.43
2018-04-07T06:50:27.794Z,9.47
2018-04-07T06:51:27.799Z,9.48
2018-04-07T06:52:27.787Z,9.48
2018-04-07T06:53:27.822Z,9.48
2018-04-07T06:54:27.771Z,9.5
2018-04-07T06:55:27.772Z,9.51
2018-04-07T06:56:27.783Z,9.54
2018-04-07T06:57:27.767Z,9.58
2018-04-07T06:58:27.883Z,9.57
2018-04-07T06:59:27.889Z,9.6
2018-04-07T07:00:27.811Z,9.61
2018-04-07T07:01:27.802Z,9.65
2018-04-07T07:02:27.834Z,9.69
2018-04-07T07:03:27.762Z,9.72
2018-04-07T07:04:27.789Z,9.74
2018-04-07T07:05:27.776Z,9.78
2018-04-07T07:06:27.822Z,9.81
2018-04-07T07:07:27.768Z,9.83
2018-04-07T07:08:27.825Z,9.85
2018-04-07T07:09:27.771Z,9.87
2018-04-07T07:10:27.772Z,9.88
2018-04-07T07:11:27.793Z,9.91
2018-04-07T07:12:27.763Z,9.9
2018-04-07T07:13:27.837Z,9.93
2018-04-07T07:14:27.761Z,9.97
2018-04-07T07:15:27.804Z,9.98
2018-04-07T07:16:27.782Z,9.99
2018-04-07T07:17:27.818Z,10.01
2018-04-07T07:18:27.793Z,10.04
2018-04-07T07:19:27.808Z,10.08
2018-04-07T07:20:27.761Z,10.13
2018-04-07T07:21:27.780Z,10.15
2018-04-07T07:22:27.783Z,10.16
2018-04-07T07:23:27.797Z,10.18
2018-04-07T07:24:27.804Z,10.22
2018-04-07T07:25:27.812Z,10.23
2018-04-07T07:26:27.810Z,10.24
2018-04-07T07:27:27.804Z,10.26
2018-04-07T07:28:27.780Z,10.28
2018-04-07T07:29:27.830Z,10.3
2018-04-07T07:30:27.807Z,10.34
2018-04-07T07:31:27.849Z,10.36
2018-04-07T07:32:27.797Z,10.36
2018-04-07T07:33:27.814Z,10.37
2018-04-07T07:34:27.765Z,10.4
2018-04-07T07:35:27.817Z,10.46
2018-04-07T07:36:27.857Z,10.44
2018-04-07T07:37:27.792Z,10.47
2018-04-07T07:38:27.803Z,10.49
2018-04-07T07:39:27.812Z,10.53
2018-04-07T07:40:27.802Z,10.58
2018-04-07T07:41:27.859Z,10.62
2018-04-07T07:42:27.814Z,10.66
2018-04-07T07:43:27.834Z,10.69
2018-04-07T07:44:27.817Z,10.74
2018-04-07T07:45:27.795Z,10.78
2018-04-07T07:46:27.789Z,10.8
2018-04-07T07:47:28.123Z,10.84
2018-04-07T07:48:27.947Z,10.85
2018-04-07T07:49:27.790Z,10.89
2018-04-07T07:50:27.819Z,10.91
2018-04-07T07:51:27.813Z,10.93
2018-04-07T07:52:27.808Z,10.96
2018-04-07T07:53:27.810Z,11.06
2018-04-07T07:54:27.792Z,11.1
2018-04-07T07:55:27.774Z,11.18
2018-04-07T07:56:27.803Z,11.22
2018-04-07T07:57:27.819Z,11.27
2018-04-07T07:58:28.193Z,11.31
2018-04-07T07:59:27.831Z,11.33
2018-04-07T08:00:27.870Z,11.38
2018-04-07T08:01:27.845Z,11.41
2018-04-07T08:02:27.806Z,11.42
2018-04-07T08:03:27.832Z,11.46
2018-04-07T08:04:27.807Z,11.47
2018-04-07T08:05:27.798Z,11.47
2018-04-07T08:06:27.814Z,11.48
2018-04-07T08:07:27.800Z,11.54
2018-04-07T08:08:27.803Z,11.52
2018-04-07T08:09:28.047Z,11.54
2018-04-07T08:10:27.794Z,11.58
2018-04-07T08:11:27.815Z,11.59
2018-04-07T08:12:27.915Z,11.61
2018-04-07T08:13:27.819Z,11.65
2018-04-07T08:14:27.835Z,11.66
2018-04-07T08:15:27.839Z,11.71
2018-04-07T08:16:27.810Z,11.72
2018-04-07T08:17:27.819Z,11.75
2018-04-07T08:18:27.806Z,11.84
2018-04-07T08:19:27.807Z,11.9
2018-04-07T08:20:28.075Z,11.95
2018-04-07T08:21:27.798Z,11.96
2018-04-07T08:22:27.810Z,12
2018-04-07T08:23:27.818Z,12.01
2018-04-07T08:24:27.828Z,12.04
2018-04-07T08:25:27.832Z,12.09
2018-04-07T08:26:27.804Z,12.11
2018-04-07T08:27:27.891Z,12.14
2018-04-07T08:28:27.812Z,12.16
2018-04-07T08:29:27.785Z,12.18
2018-04-07T08:30:27.793Z,12.23
2018-04-07T08:31:28.043Z,12.29
2018-04-07T08:32:27.818Z,12.31
2018-04-07T08:33:27.823Z,12.34
2018-04-07T08:34:27.986Z,12.4
2018-04-07T08:35:27.810Z,12.44
2018-04-07T08:36:27.835Z,12.43
2018-04-07T08:37:27.813Z,12.47
2018-04-07T08:38:27.801Z,12.47
2018-04-07T08:39:28.769Z,12.52
2018-04-07T08:40:27.825Z,12.52
2018-04-07T08:41:27.816Z,12.53
2018-04-07T08:42:27.831Z,12.59
2018-04-07T08:43:27.816Z,12.6
2018-04-07T08:44:27.817Z,12.62
2018-04-07T08:45:27.803Z,12.68
2018-04-07T08:46:28.004Z,12.68
2018-04-07T08:47:27.847Z,12.72
2018-04-07T08:48:27.815Z,12.8
2018-04-07T08:49:27.850Z,12.84
2018-04-07T08:50:27.812Z,12.86
2018-04-07T08:51:27.844Z,12.84
2018-04-07T08:52:27.821Z,12.86
2018-04-07T08:53:28.253Z,12.93
2018-04-07T08:54:27.818Z,12.97
2018-04-07T08:55:27.827Z,13.03
2018-04-07T08:56:27.809Z,13.04
2018-04-07T08:57:27.836Z,13.09
2018-04-07T08:58:27.814Z,13.11
2018-04-07T08:59:27.801Z,13.18
2018-04-07T09:00:27.829Z,13.25
2018-04-07T09:01:27.836Z,13.3
2018-04-07T09:02:27.887Z,13.38
2018-04-07T09:03:27.827Z,13.39
2018-04-07T09:04:27.836Z,13.43
2018-04-07T09:05:27.842Z,13.45
2018-04-07T09:06:27.825Z,13.33
2018-04-07T09:07:27.830Z,13.38
2018-04-07T09:08:27.883Z,13.42
2018-04-07T09:09:27.824Z,13.47
2018-04-07T09:10:27.836Z,13.54
2018-04-07T09:11:27.827Z,13.58
2018-04-07T09:12:27.816Z,13.66
2018-04-07T09:13:27.821Z,13.71
2018-04-07T09:14:27.836Z,13.71
2018-04-07T09:15:27.829Z,13.72
2018-04-07T09:16:27.834Z,13.75
2018-04-07T09:17:27.820Z,13.82
2018-04-07T09:18:27.840Z,13.86
2018-04-07T09:19:28.260Z,13.89
2018-04-07T09:20:27.906Z,13.92
2018-04-07T09:21:27.881Z,13.91
2018-04-07T09:22:27.852Z,14.03
2018-04-07T09:23:27.840Z,14.06
2018-04-07T09:24:27.887Z,14.11
2018-04-07T09:25:27.861Z,14.13
2018-04-07T09:26:27.889Z,14.23
2018-04-07T09:27:27.843Z,14.29
2018-04-07T09:28:27.833Z,14.33
2018-04-07T09:29:27.837Z,14.3
2018-04-07T09:30:27.838Z,14.29
2018-04-07T09:31:27.869Z,14.28
2018-04-07T09:32:27.939Z,14.27
2018-04-07T09:33:27.886Z,14.26
2018-04-07T09:34:27.852Z,14.18
2018-04-07T09:35:27.814Z,14.24
2018-04-07T09:36:27.863Z,14.28
2018-04-07T09:37:27.818Z,14.34
2018-04-07T09:38:27.819Z,14.27
2018-04-07T09:39:27.882Z,14.28
2018-04-07T09:40:27.833Z,14.33
2018-04-07T09:41:27.867Z,14.37
2018-04-07T09:42:27.827Z,14.44
2018-04-07T09:43:27.823Z,14.51
2018-04-07T09:44:27.850Z,14.6
2018-04-07T09:45:27.833Z,14.61
2018-04-07T09:46:27.850Z,14.62
2018-04-07T09:47:27.848Z,14.66
2018-04-07T09:48:27.824Z,14.72
2018-04-07T09:49:27.828Z,14.8
2018-04-07T09:50:27.865Z,14.83
2018-04-07T09:51:28.114Z,14.89
2018-04-07T09:52:28.060Z,14.97
2018-04-07T09:53:27.832Z,14.99
2018-04-07T09:54:27.844Z,15.1
2018-04-07T09:55:27.873Z,15.14
2018-04-07T09:56:27.882Z,15.22
2018-04-07T09:57:27.843Z,15.3
2018-04-07T09:58:27.836Z,15.31
2018-04-07T09:59:27.870Z,15.36
2018-04-07T10:00:27.857Z,15.43
2018-04-07T10:01:27.936Z,15.41
2018-04-07T10:02:27.837Z,15.43
2018-04-07T10:03:27.920Z,15.5
2018-04-07T10:04:28.167Z,15.57
2018-04-07T10:05:27.840Z,15.63
2018-04-07T10:06:27.860Z,15.67
2018-04-07T10:07:27.862Z,15.74
2018-04-07T10:08:27.871Z,15.76
2018-04-07T10:09:27.847Z,15.8
2018-04-07T10:10:27.870Z,15.83
2018-04-07T10:11:27.876Z,15.9
2018-04-07T10:12:27.884Z,15.92
2018-04-07T10:13:28.003Z,15.93
2018-04-07T10:14:27.840Z,16.01
2018-04-07T10:15:27.873Z,16.07
2018-04-07T10:16:27.877Z,16.11
2018-04-07T10:17:27.874Z,16.12
2018-04-07T10:18:27.902Z,16.06
2018-04-07T10:19:27.863Z,15.98
2018-04-07T10:20:27.874Z,16.02
2018-04-07T10:21:28.086Z,16.07
2018-04-07T10:22:27.851Z,15.95
2018-04-07T10:23:27.863Z,15.99
2018-04-07T10:24:27.851Z,16.06
2018-04-07T10:25:27.853Z,16.06
2018-04-07T10:26:27.888Z,16.12
2018-04-07T10:27:27.847Z,16.12
2018-04-07T10:28:27.993Z,16.2
2018-04-07T10:29:28.045Z,16.31
2018-04-07T10:30:27.974Z,16.38
2018-04-07T10:31:28.015Z,16.4
2018-04-07T10:32:27.993Z,16.42
2018-04-07T10:33:27.982Z,16.48
2018-04-07T10:34:27.970Z,16.48
2018-04-07T10:35:28.046Z,16.47
2018-04-07T10:36:27.991Z,16.48
2018-04-07T10:37:27.943Z,16.52
2018-04-07T10:38:27.911Z,16.53
2018-04-07T10:39:27.944Z,16.56
2018-04-07T10:40:27.981Z,16.57
2018-04-07T10:41:28.002Z,16.67
2018-04-07T10:42:28.084Z,16.74
2018-04-07T10:43:27.995Z,16.77
2018-04-07T10:44:27.982Z,16.81
2018-04-07T10:45:27.964Z,16.82
2018-04-07T10:46:28.003Z,16.85
2018-04-07T10:47:27.951Z,16.87
2018-04-07T10:48:27.999Z,16.96
2018-04-07T10:49:28.053Z,16.99
2018-04-07T10:50:27.948Z,17.01
2018-04-07T10:51:27.949Z,17.07
2018-04-07T10:52:27.972Z,17.12
2018-04-07T10:53:27.965Z,17.2
2018-04-07T10:54:27.989Z,17.25
2018-04-07T10:55:27.970Z,17.29
2018-04-07T10:56:27.980Z,17.35
2018-04-07T10:57:27.958Z,17.37
2018-04-07T10:58:27.896Z,17.4
2018-04-07T10:59:28.021Z,17.4
2018-04-07T11:00:28.004Z,17.48
2018-04-07T11:01:28.017Z,17.57
2018-04-07T11:02:27.978Z,17.64
2018-04-07T11:03:28.047Z,17.67
2018-04-07T11:04:27.975Z,17.76
2018-04-07T11:05:28.007Z,17.79
2018-04-07T11:06:28.057Z,17.77
2018-04-07T11:07:27.925Z,17.8
2018-04-07T11:08:27.970Z,17.82
2018-04-07T11:09:28.118Z,17.88
2018-04-07T11:10:28.365Z,17.88
2018-04-07T11:11:28.545Z,17.88
2018-04-07T11:12:28.012Z,17.95
2018-04-07T11:13:28.040Z,17.96
2018-04-07T11:14:28.003Z,18.08
2018-04-07T11:15:27.954Z,18.15
2018-04-07T11:16:28.061Z,18.22
2018-04-07T11:17:28.014Z,18.29
2018-04-07T11:18:27.972Z,18.3
2018-04-07T11:19:28.004Z,18.32
2018-04-07T11:20:28.041Z,18.29
2018-04-07T11:21:28.045Z,18.29
2018-04-07T11:22:27.982Z,18.29
2018-04-07T11:23:27.989Z,18.33
2018-04-07T11:24:28.012Z,18.39
2018-04-07T11:25:27.998Z,18.43
2018-04-07T11:26:27.997Z,18.47
2018-04-07T11:27:28.034Z,18.58
2018-04-07T11:28:27.984Z,18.62
2018-04-07T11:29:28.006Z,18.68
2018-04-07T11:30:27.904Z,18.72
2018-04-07T11:31:27.926Z,18.76
2018-04-07T11:32:27.869Z,18.85
2018-04-07T11:33:27.878Z,18.92
2018-04-07T11:34:27.890Z,18.94
2018-04-07T11:35:28.243Z,18.93
2018-04-07T11:36:27.890Z,18.95
2018-04-07T11:37:28.029Z,18.97
2018-04-07T11:38:27.896Z,19
2018-04-07T11:39:27.894Z,19.01
2018-04-07T11:40:27.892Z,19.02
2018-04-07T11:41:27.908Z,19.07
2018-04-07T11:42:27.932Z,19.1
2018-04-07T11:43:27.899Z,19.19
2018-04-07T11:44:27.940Z,19.24
2018-04-07T11:45:27.929Z,19.29
2018-04-07T11:46:27.890Z,19.28
2018-04-07T11:47:27.943Z,19.3
2018-04-07T11:48:27.892Z,19.33
2018-04-07T11:49:27.904Z,19.35
2018-04-07T11:50:27.886Z,19.35
2018-04-07T11:51:27.891Z,19.39
2018-04-07T11:52:27.996Z,19.38
2018-04-07T11:53:27.907Z,19.44
2018-04-07T11:54:27.898Z,19.57
2018-04-07T11:55:27.887Z,19.64
2018-04-07T11:56:27.907Z,19.66
2018-04-07T11:57:27.915Z,19.74
2018-04-07T11:58:27.927Z,19.71
2018-04-07T11:59:27.969Z,19.77
2018-04-07T12:00:27.914Z,19.83
2018-04-07T12:01:27.973Z,19.9
2018-04-07T12:02:28.751Z,19.96
2018-04-07T12:03:28.022Z,19.95
2018-04-07T12:04:27.923Z,19.91
2018-04-07T12:05:27.958Z,19.93
2018-04-07T12:06:27.951Z,19.97
2018-04-07T12:07:27.907Z,20.07
2018-04-07T12:08:28.198Z,20.09
2018-04-07T12:09:27.906Z,20.09
2018-04-07T12:10:27.925Z,20.17
2018-04-07T12:11:28.455Z,20.23
2018-04-07T12:12:27.984Z,20.26
2018-04-07T12:13:28.069Z,20.29
2018-04-07T12:14:27.933Z,20.32
2018-04-07T12:15:27.928Z,20.36
2018-04-07T12:16:27.923Z,20.38
2018-04-07T12:17:27.953Z,20.43
2018-04-07T12:18:27.951Z,20.44
2018-04-07T12:19:27.920Z,20.51
2018-04-07T12:20:27.955Z,20.51
2018-04-07T12:21:27.935Z,20.61
2018-04-07T12:22:27.951Z,20.63
2018-04-07T12:23:28.270Z,20.62
2018-04-07T12:24:27.962Z,20.66
2018-04-07T12:25:27.928Z,20.68
2018-04-07T12:26:27.969Z,20.73
2018-04-07T12:27:27.999Z,20.79
2018-04-07T12:28:27.968Z,20.83
2018-04-07T12:29:27.911Z,20.77
2018-04-07T12:30:27.927Z,20.73
2018-04-07T12:31:27.915Z,20.83
2018-04-07T12:32:27.924Z,20.93
2018-04-07T12:33:27.934Z,20.95
2018-04-07T12:34:27.912Z,20.99
2018-04-07T12:35:27.948Z,21.05
2018-04-07T12:36:27.900Z,21.05
2018-04-07T12:37:27.916Z,21.01
2018-04-07T12:38:27.955Z,20.93
2018-04-07T12:39:28.028Z,20.97
2018-04-07T12:40:27.900Z,21.03
2018-04-07T12:41:27.938Z,21.1
2018-04-07T12:42:27.951Z,21.17
2018-04-07T12:43:27.934Z,21.22
2018-04-07T12:44:27.945Z,21.3
2018-04-07T12:45:27.972Z,21.37
2018-04-07T12:46:27.925Z,21.43
2018-04-07T12:47:27.958Z,21.52
2018-04-07T12:48:27.963Z,21.57
2018-04-07T12:49:27.930Z,21.63
2018-04-07T12:50:27.973Z,21.69
2018-04-07T12:51:27.953Z,21.74
2018-04-07T12:52:27.935Z,21.83
2018-04-07T12:53:28.052Z,21.87
2018-04-07T12:54:27.972Z,21.93
2018-04-07T12:55:27.960Z,21.94
2018-04-07T12:56:27.935Z,22.01
2018-04-07T12:57:27.940Z,22.1
2018-04-07T12:58:28.095Z,22.17
2018-04-07T12:59:27.961Z,22.23
2018-04-07T13:00:27.943Z,22.29
2018-04-07T13:01:27.956Z,22.31
2018-04-07T13:02:27.962Z,22.41
2018-04-07T13:03:27.967Z,22.48
2018-04-07T13:04:27.967Z,22.55
2018-04-07T13:05:27.973Z,22.59
2018-04-07T13:06:27.970Z,22.5
2018-04-07T13:07:27.964Z,22.53